createdAt,value
2022-11-27T00:02:12.411Z,55.83
2022-11-27T00:04:38.688Z,62.85
2022-11-27T00:07:04.943Z,58.58
2022-11-27T00:09:31.215Z,51.08
2022-11-27T00:11:57.456Z,48.10
2022-11-27T00:14:23.702Z,52.75
2022-11-27T00:16:50.355Z,50.72
2022-11-27T00:19:16.615Z,49.53
2022-11-27T00:21:42.838Z,49.13
2022-11-27T00:24:10.315Z,41.50
2022-11-27T00:26:38.269Z,46.05
2022-11-27T00:29:05.183Z,49.72
2022-11-27T00:31:32.314Z,41.40
2022-11-27T00:33:59.987Z,49.67
2022-11-27T00:36:26.644Z,46.22
2022-11-27T00:38:53.374Z,40.67
2022-11-27T00:41:21.057Z,40.63
2022-11-27T00:43:47.587Z,31.92
2022-11-27T00:46:14.455Z,27.35
2022-11-27T00:48:40.987Z,30.63
2022-11-27T00:51:08.249Z,39.72
2022-11-27T00:53:34.537Z,39.22
2022-11-27T00:56:01.255Z,37.10
2022-11-27T00:58:27.847Z,35.15
2022-11-27T01:00:57.932Z,24.65
2022-11-27T01:03:24.710Z,36.22
2022-11-27T01:05:51.317Z,39.80
2022-11-27T01:08:19.233Z,38.00
2022-11-27T01:10:54.859Z,37.17
2022-11-27T01:13:25.528Z,36.10
2022-11-27T01:16:02.093Z,37.90
2022-11-27T01:18:28.723Z,41.63
2022-11-27T01:20:55.222Z,39.90
2022-11-27T01:23:22.097Z,36.28
2022-11-27T01:28:15.207Z,29.52
2022-11-27T01:33:07.614Z,31.63
2022-11-27T01:35:33.913Z,40.17
2022-11-27T01:38:00.157Z,37.22
2022-11-27T01:40:26.453Z,34.30
2022-11-27T01:42:52.697Z,83.45
2022-11-27T01:45:19.766Z,160.52
2022-11-27T01:47:57.439Z,196.10
2022-11-27T01:50:26.692Z,160.50
2022-11-27T01:52:55.374Z,295.17
2022-11-27T01:55:30.378Z,418.98
2022-11-27T01:57:59.038Z,373.55
2022-11-27T02:00:25.381Z,422.40
2022-11-27T02:02:51.742Z,79.07
2022-11-27T02:05:19.517Z,132.93
2022-11-27T02:07:46.481Z,297.50
2022-11-27T02:10:13.190Z,466.08
2022-11-27T02:12:49.403Z,257.45
2022-11-27T02:15:31.475Z,670.55
2022-11-27T02:18:13.659Z,434.08
2022-11-27T02:20:45.729Z,510.50
2022-11-27T02:23:21.108Z,210.07
2022-11-27T02:25:56.434Z,268.83
2022-11-27T02:28:39.810Z,368.83
2022-11-27T02:31:09.726Z,371.40
2022-11-27T02:33:37.692Z,446.23
2022-11-27T02:36:09.354Z,448.15
2022-11-27T02:38:46.960Z,348.00
2022-11-27T02:41:17.287Z,215.10
2022-11-27T02:43:46.434Z,339.50
2022-11-27T02:46:13.341Z,363.92
2022-11-27T02:48:43.014Z,643.45
2022-11-27T02:51:09.455Z,515.47
2022-11-27T02:53:42.929Z,374.95
2022-11-27T02:56:12.410Z,465.17
2022-11-27T02:58:39.056Z,335.63
2022-11-27T03:01:05.975Z,412.80
2022-11-27T03:06:00.782Z,314.67
2022-11-27T03:08:30.882Z,313.92
2022-11-27T03:11:00.963Z,418.02
2022-11-27T03:13:27.912Z,322.17
2022-11-27T03:16:00.742Z,341.08
2022-11-27T03:18:44.065Z,300.92
2022-11-27T03:21:30.559Z,279.50
2022-11-27T03:23:57.306Z,343.23
2022-11-27T03:26:23.552Z,461.75
2022-11-27T03:28:50.209Z,301.30
2022-11-27T03:31:16.632Z,290.30
2022-11-27T03:33:42.939Z,275.73
2022-11-27T03:36:16.331Z,320.58
2022-11-27T03:38:43.526Z,245.75
2022-11-27T03:41:16.820Z,242.00
2022-11-27T03:43:49.830Z,229.80
2022-11-27T03:46:19.957Z,246.68
2022-11-27T03:48:59.071Z,212.55
2022-11-27T03:51:42.336Z,153.30
2022-11-27T03:54:17.177Z,147.80
2022-11-27T03:56:57.907Z,258.50
2022-11-27T03:59:27.287Z,110.60
2022-11-27T04:01:53.590Z,104.80
2022-11-27T04:04:20.144Z,140.27
2022-11-27T04:06:46.583Z,260.30
2022-11-27T04:09:12.864Z,98.97
2022-11-27T04:11:39.117Z,156.35
2022-11-27T04:14:05.824Z,175.95
2022-11-27T04:16:32.253Z,87.18
2022-11-27T04:18:58.540Z,106.75
2022-11-27T04:21:24.785Z,108.70
2022-11-27T04:23:51.004Z,70.18
2022-11-27T04:26:17.436Z,99.82
2022-11-27T04:28:43.694Z,80.07
2022-11-27T04:31:10.084Z,90.00
2022-11-27T04:33:36.409Z,83.90
2022-11-27T04:36:02.688Z,143.23
2022-11-27T04:38:28.945Z,87.43
2022-11-27T04:40:55.235Z,88.95
2022-11-27T04:43:21.506Z,89.32
2022-11-27T04:45:47.931Z,88.10
2022-11-27T04:48:14.200Z,195.90
2022-11-27T04:50:40.478Z,66.57
2022-11-27T04:53:06.728Z,75.90
2022-11-27T04:55:33.040Z,143.57
2022-11-27T04:57:59.309Z,77.78
2022-11-27T05:00:25.726Z,41.22
2022-11-27T05:02:52.208Z,68.65
2022-11-27T05:05:18.532Z,89.22
2022-11-27T05:07:44.857Z,71.38
2022-11-27T05:10:11.331Z,131.13
2022-11-27T05:12:37.606Z,99.15
2022-11-27T05:15:04.790Z,100.78
2022-11-27T05:17:31.309Z,49.47
2022-11-27T05:19:57.519Z,66.78
2022-11-27T05:22:23.750Z,42.60
2022-11-27T05:24:50.004Z,44.50
2022-11-27T05:27:16.256Z,55.58
2022-11-27T05:29:43.580Z,80.00
2022-11-27T05:32:09.824Z,77.40
2022-11-27T05:34:36.065Z,61.72
2022-11-27T05:37:02.300Z,73.55
2022-11-27T05:39:28.532Z,47.50
2022-11-27T05:41:54.774Z,75.85
2022-11-27T05:44:21.013Z,102.55
2022-11-27T05:46:47.349Z,52.25
2022-11-27T05:49:14.592Z,89.35
2022-11-27T05:51:42.538Z,108.32
2022-11-27T05:54:11.488Z,73.22
2022-11-27T05:56:37.745Z,90.55
2022-11-27T05:59:03.989Z,71.63
2022-11-27T06:01:30.312Z,74.72
2022-11-27T06:03:56.531Z,83.97
2022-11-27T06:06:22.940Z,51.15
2022-11-27T06:08:49.198Z,81.35
2022-11-27T06:11:20.066Z,53.83
2022-11-27T06:13:46.955Z,49.45
2022-11-27T06:18:39.600Z,45.28
2022-11-27T06:21:10.171Z,51.20
2022-11-27T06:23:36.511Z,33.92
2022-11-27T06:26:10.350Z,54.28
2022-11-27T06:28:36.603Z,53.40
2022-11-27T06:31:06.840Z,54.63
2022-11-27T06:33:33.184Z,72.93
2022-11-27T06:35:59.406Z,51.17
2022-11-27T06:38:25.650Z,56.42
2022-11-27T06:40:51.885Z,80.50
2022-11-27T06:43:18.129Z,39.55
2022-11-27T06:45:44.388Z,45.65
2022-11-27T06:48:10.713Z,40.95
2022-11-27T06:50:36.965Z,65.88
2022-11-27T06:53:03.180Z,67.75
2022-11-27T06:55:29.454Z,54.45
2022-11-27T06:57:55.677Z,47.90
2022-11-27T07:00:21.999Z,44.97
2022-11-27T07:02:48.221Z,39.53
2022-11-27T07:05:14.483Z,74.70
2022-11-27T07:07:43.779Z,74.32
2022-11-27T07:10:10.495Z,57.58
2022-11-27T07:12:36.703Z,42.28
2022-11-27T07:15:04.477Z,84.50
2022-11-27T07:17:30.848Z,114.90
2022-11-27T07:19:57.081Z,61.22
2022-11-27T07:22:23.306Z,64.20
2022-11-27T07:24:49.572Z,97.97
2022-11-27T07:27:15.805Z,85.57
2022-11-27T07:29:42.027Z,66.65
2022-11-27T07:32:08.329Z,175.57
2022-11-27T07:34:34.601Z,70.70
2022-11-27T07:37:00.817Z,76.25
2022-11-27T07:39:54.105Z,62.03
2022-11-27T07:44:59.513Z,112.32
2022-11-27T07:47:25.719Z,133.77
2022-11-27T07:49:52.005Z,63.53
2022-11-27T07:52:18.221Z,80.97
2022-11-27T07:54:44.568Z,88.10
2022-11-27T07:57:10.805Z,86.05
2022-11-27T07:59:37.046Z,109.07
2022-11-27T08:02:03.340Z,104.40
2022-11-27T08:04:29.698Z,129.80
2022-11-27T08:06:57.335Z,55.25
2022-11-27T08:09:23.743Z,87.63
2022-11-27T08:11:50.211Z,107.18
2022-11-27T08:14:17.474Z,112.70
2022-11-27T08:16:43.791Z,96.78
2022-11-27T08:19:10.445Z,101.72
2022-11-27T08:21:36.698Z,153.45
2022-11-27T08:24:03.236Z,140.80
2022-11-27T08:26:29.486Z,76.70
2022-11-27T08:28:56.316Z,47.85
2022-11-27T08:31:23.110Z,58.20
2022-11-27T08:36:18.425Z,51.78
2022-11-27T08:38:45.044Z,52.05
2022-11-27T08:41:11.292Z,54.90
2022-11-27T08:43:37.736Z,39.38
2022-11-27T08:46:05.013Z,33.08
2022-11-27T08:48:31.378Z,33.38
2022-11-27T08:50:57.624Z,34.83
2022-11-27T08:53:23.855Z,28.38
2022-11-27T08:55:50.128Z,24.63
2022-11-27T08:58:16.346Z,22.92
2022-11-27T09:00:42.654Z,23.83
2022-11-27T09:03:10.909Z,22.17
2022-11-27T09:05:41.122Z,23.95
2022-11-27T09:08:07.408Z,29.88
2022-11-27T09:10:33.670Z,33.20
2022-11-27T09:13:00.601Z,40.58
2022-11-27T09:17:53.060Z,31.60
2022-11-27T09:20:20.123Z,40.10
2022-11-27T09:22:46.360Z,36.80
2022-11-27T09:25:12.657Z,50.78
2022-11-27T09:27:38.930Z,59.40
2022-11-27T09:30:06.591Z,50.78
2022-11-27T09:32:32.904Z,29.58
2022-11-27T09:34:59.168Z,39.17
2022-11-27T09:37:25.459Z,46.50
2022-11-27T09:39:51.839Z,38.75
2022-11-27T09:42:39.786Z,34.00
2022-11-27T09:45:10.268Z,34.90
2022-11-27T09:47:50.226Z,34.67
2022-11-27T09:50:22.538Z,38.75
2022-11-27T09:52:52.115Z,34.20
2022-11-27T09:55:24.523Z,30.75
2022-11-27T09:58:05.951Z,30.23
2022-11-27T10:00:32.240Z,25.70
2022-11-27T10:02:58.665Z,27.30
2022-11-27T10:05:40.328Z,25.42
2022-11-27T10:08:33.060Z,24.67
2022-11-27T10:11:05.455Z,21.90
2022-11-27T10:13:31.686Z,22.23
2022-11-27T10:16:09.696Z,25.45
2022-11-27T10:18:41.523Z,21.50
2022-11-27T10:21:28.010Z,23.05
2022-11-27T10:24:04.187Z,28.95
2022-11-27T10:26:46.677Z,27.35
2022-11-27T10:29:25.191Z,22.45
2022-11-27T10:31:53.781Z,19.27
2022-11-27T10:34:26.120Z,20.10
2022-11-27T10:36:53.599Z,26.70
2022-11-27T10:39:25.302Z,17.98
2022-11-27T10:42:02.136Z,18.80
2022-11-27T10:44:31.481Z,16.60
2022-11-27T10:47:01.147Z,17.85
2022-11-27T10:49:27.453Z,22.13
2022-11-27T10:51:53.699Z,21.75
2022-11-27T10:54:36.798Z,23.92
2022-11-27T10:57:12.061Z,24.67
2022-11-27T11:00:10.829Z,31.38
2022-11-27T11:05:34.598Z,26.05
2022-11-27T11:08:04.945Z,23.65
2022-11-27T11:10:33.897Z,22.52
2022-11-27T11:13:04.079Z,22.73
2022-11-27T11:15:31.360Z,22.35
2022-11-27T11:17:57.619Z,19.23
2022-11-27T11:20:24.350Z,21.92
2022-11-27T11:22:50.734Z,22.58
2022-11-27T11:25:21.180Z,22.73
2022-11-27T11:27:49.160Z,27.58
2022-11-27T11:30:22.818Z,19.40
2022-11-27T11:32:50.452Z,19.38
2022-11-27T11:35:30.641Z,18.58
2022-11-27T11:37:57.281Z,25.38
2022-11-27T11:40:26.382Z,18.33
2022-11-27T11:42:54.546Z,22.27
2022-11-27T11:45:21.406Z,25.77
2022-11-27T11:47:48.913Z,20.52
2022-11-27T11:50:22.813Z,15.80
2022-11-27T11:52:59.544Z,16.25
2022-11-27T11:55:27.650Z,18.85
2022-11-27T11:57:56.689Z,24.73
2022-11-27T12:00:29.427Z,16.80
2022-11-27T12:03:04.617Z,19.20
2022-11-27T12:05:40.907Z,16.65
2022-11-27T12:08:07.223Z,17.65
2022-11-27T12:10:50.129Z,20.25
2022-11-27T12:13:33.316Z,17.15
2022-11-27T12:16:18.093Z,13.63
2022-11-27T12:19:04.132Z,12.60
2022-11-27T12:21:39.319Z,12.63
2022-11-27T12:24:23.852Z,13.88
2022-11-27T12:27:08.899Z,13.48
2022-11-27T12:29:53.913Z,12.82
2022-11-27T12:32:26.327Z,12.57
2022-11-27T12:35:11.346Z,14.20
2022-11-27T12:37:56.367Z,14.35
2022-11-27T12:40:22.823Z,12.07
2022-11-27T12:43:07.901Z,15.20
2022-11-27T12:45:40.288Z,15.05
2022-11-27T12:48:19.214Z,16.50
2022-11-27T12:50:48.078Z,17.10
2022-11-27T12:53:16.776Z,18.48
2022-11-27T12:55:49.988Z,19.50
2022-11-27T12:58:19.191Z,21.23
2022-11-27T13:00:45.551Z,20.95
2022-11-27T13:03:34.797Z,18.98
2022-11-27T13:06:07.461Z,25.25
2022-11-27T13:08:52.786Z,21.88
2022-11-27T13:11:20.123Z,23.13
2022-11-27T13:13:52.011Z,23.45
2022-11-27T13:16:21.289Z,23.17
2022-11-27T13:18:51.809Z,23.02
2022-11-27T13:21:23.580Z,25.13
2022-11-27T13:23:50.575Z,23.67
2022-11-27T13:28:47.451Z,19.05
2022-11-27T13:31:33.207Z,22.95
2022-11-27T13:34:01.741Z,22.45
2022-11-27T13:36:35.760Z,20.50
2022-11-27T13:39:02.777Z,19.60
2022-11-27T13:41:40.028Z,20.48
2022-11-27T13:44:21.699Z,17.02
2022-11-27T13:46:49.054Z,19.38
2022-11-27T13:49:24.856Z,18.88
2022-11-27T13:51:51.144Z,19.02
2022-11-27T13:54:21.327Z,18.75
2022-11-27T13:56:50.817Z,20.02
2022-11-27T13:59:18.412Z,22.05
2022-11-27T14:02:05.270Z,24.33
2022-11-27T14:04:32.424Z,20.67
2022-11-27T14:07:06.990Z,25.35
2022-11-27T14:09:47.925Z,20.95
2022-11-27T14:12:33.256Z,31.73
2022-11-27T14:15:01.576Z,19.95
2022-11-27T14:17:33.895Z,22.77
2022-11-27T14:20:20.530Z,24.40
2022-11-27T14:23:11.205Z,25.75
2022-11-27T14:25:37.832Z,25.90
2022-11-27T14:28:11.598Z,24.92
2022-11-27T14:30:41.020Z,19.92
2022-11-27T14:33:16.647Z,20.02
2022-11-27T14:35:42.894Z,24.83
2022-11-27T14:38:10.603Z,23.25
2022-11-27T14:40:37.374Z,27.55
2022-11-27T14:43:10.691Z,20.73
2022-11-27T14:45:37.509Z,22.67
2022-11-27T14:48:03.834Z,24.02
2022-11-27T14:50:30.070Z,21.38
2022-11-27T14:52:56.964Z,20.30
2022-11-27T14:57:49.767Z,22.58
2022-11-27T15:00:27.203Z,18.27
2022-11-27T15:02:53.935Z,19.35
2022-11-27T15:05:25.108Z,25.55
2022-11-27T15:07:53.795Z,22.70
2022-11-27T15:10:27.973Z,20.30
2022-11-27T15:12:54.539Z,23.17
2022-11-27T15:15:22.693Z,22.48
2022-11-27T15:17:50.689Z,21.13
2022-11-27T15:20:30.057Z,20.05
2022-11-27T15:22:57.257Z,21.63
2022-11-27T15:25:34.012Z,22.67
2022-11-27T15:28:00.262Z,18.02
2022-11-27T15:30:26.636Z,28.02
2022-11-27T15:32:53.580Z,28.70
2022-11-27T15:37:46.146Z,26.85
2022-11-27T15:40:28.557Z,30.95
2022-11-27T15:42:54.807Z,31.30
2022-11-27T15:45:21.309Z,28.02
2022-11-27T15:47:47.546Z,41.10
2022-11-27T15:50:15.329Z,73.90
2022-11-27T15:52:41.655Z,57.58
2022-11-27T15:55:12.424Z,43.35
2022-11-27T15:57:38.655Z,23.35
2022-11-27T16:00:08.849Z,21.88
2022-11-27T16:02:35.171Z,21.38
2022-11-27T16:05:01.457Z,26.95
2022-11-27T16:07:27.749Z,25.40
2022-11-27T16:09:54.110Z,26.80
2022-11-27T16:12:20.348Z,31.30
2022-11-27T16:14:46.764Z,46.53
2022-11-27T16:17:13.057Z,35.92
2022-11-27T16:19:39.381Z,46.05
2022-11-27T16:22:05.591Z,75.43
2022-11-27T16:24:31.904Z,88.38
2022-11-27T16:26:58.410Z,25.27
2022-11-27T16:29:24.631Z,29.13
2022-11-27T16:31:51.024Z,24.50
2022-11-27T16:34:17.463Z,27.10
2022-11-27T16:36:43.794Z,30.10
2022-11-27T16:39:11.017Z,24.83
2022-11-27T16:41:37.555Z,25.92
2022-11-27T16:44:09.419Z,30.45
2022-11-27T16:46:36.168Z,28.33
2022-11-27T16:49:06.243Z,28.58
2022-11-27T16:51:33.797Z,30.55
2022-11-27T16:54:04.060Z,26.65
2022-11-27T16:56:31.011Z,27.42
2022-11-27T17:01:30.889Z,23.38
2022-11-27T17:03:57.223Z,26.52
2022-11-27T17:06:30.673Z,26.60
2022-11-27T17:08:58.161Z,30.95
2022-11-27T17:11:25.408Z,31.50
2022-11-27T17:13:52.327Z,29.60
2022-11-27T17:18:45.621Z,63.70
2022-11-27T17:21:14.348Z,51.25
2022-11-27T17:23:43.039Z,82.35
2022-11-27T17:26:10.524Z,26.58
2022-11-27T17:28:37.047Z,83.95
2022-11-27T17:31:08.337Z,66.55
2022-11-27T17:33:34.548Z,26.73
2022-11-27T17:36:00.833Z,35.92
2022-11-27T17:38:27.067Z,33.85
2022-11-27T17:40:53.308Z,44.00
2022-11-27T17:43:19.596Z,75.72
2022-11-27T17:45:45.903Z,32.47
2022-11-27T17:48:12.203Z,28.85
2022-11-27T17:50:39.119Z,27.67
2022-11-27T17:55:32.704Z,27.58
2022-11-27T17:57:58.960Z,25.58
2022-11-27T18:00:25.208Z,25.45
2022-11-27T18:02:51.454Z,30.40
2022-11-27T18:05:17.695Z,28.20
2022-11-27T18:07:44.032Z,24.83
2022-11-27T18:10:10.680Z,24.60
2022-11-27T18:12:36.930Z,26.55
2022-11-27T18:15:03.507Z,29.52
2022-11-27T18:17:29.880Z,28.48
2022-11-27T18:19:58.888Z,29.80
2022-11-27T18:22:25.250Z,23.05
2022-11-27T18:24:51.463Z,24.02
2022-11-27T18:27:17.772Z,25.38
2022-11-27T18:29:44.978Z,21.25
2022-11-27T18:32:12.212Z,27.02
2022-11-27T18:34:39.001Z,37.45
2022-11-27T18:37:05.539Z,40.97
2022-11-27T18:39:32.049Z,39.35
2022-11-27T18:41:58.327Z,45.08
2022-11-27T18:44:24.604Z,41.78
2022-11-27T18:46:50.909Z,48.13
2022-11-27T18:49:17.214Z,47.45
2022-11-27T18:51:43.525Z,41.55
2022-11-27T18:54:09.763Z,39.08
2022-11-27T18:56:37.100Z,77.28
2022-11-27T18:59:04.301Z,97.68
2022-11-27T19:01:33.174Z,61.65
2022-11-27T19:04:03.877Z,45.15
2022-11-27T19:06:30.498Z,35.17
2022-11-27T19:08:57.167Z,38.30
2022-11-27T19:11:23.841Z,93.07
2022-11-27T19:13:50.890Z,70.60
2022-11-27T19:16:18.662Z,43.03
2022-11-27T19:18:45.235Z,41.83
2022-11-27T19:21:22.127Z,42.58
2022-11-27T19:23:49.163Z,42.25
2022-11-27T19:26:17.131Z,32.65
2022-11-27T19:28:44.192Z,47.63
2022-11-27T19:31:12.004Z,49.55
2022-11-27T19:33:39.458Z,49.13
2022-11-27T19:36:08.499Z,57.33
2022-11-27T19:38:34.956Z,27.63
2022-11-27T19:41:01.575Z,31.45
2022-11-27T19:43:27.803Z,38.10
2022-11-27T19:45:54.289Z,33.05
2022-11-27T19:48:23.424Z,27.42
2022-11-27T19:50:51.535Z,29.52
2022-11-27T19:53:17.927Z,27.10
2022-11-27T19:55:44.476Z,28.77
2022-11-27T19:58:12.276Z,31.92
2022-11-27T20:00:38.491Z,31.67
2022-11-27T20:03:04.752Z,52.67
2022-11-27T20:05:30.979Z,34.97
2022-11-27T20:07:57.798Z,97.20
2022-11-27T20:12:50.204Z,39.97
2022-11-27T20:15:16.907Z,37.35
2022-11-27T20:17:43.970Z,39.72
2022-11-27T20:20:10.551Z,40.58
2022-11-27T20:22:36.925Z,36.45
2022-11-27T20:25:20.158Z,34.92
2022-11-27T20:27:46.912Z,37.47
2022-11-27T20:30:13.373Z,32.30
2022-11-27T20:32:39.621Z,39.10
2022-11-27T20:35:05.916Z,48.53
2022-11-27T20:37:32.537Z,32.60
2022-11-27T20:39:58.840Z,33.67
2022-11-27T20:42:25.278Z,32.25
2022-11-27T20:44:51.556Z,36.78
2022-11-27T20:47:17.839Z,34.83
2022-11-27T20:49:44.599Z,31.77
2022-11-27T20:52:11.424Z,47.40
2022-11-27T20:54:37.652Z,60.22
2022-11-27T20:57:04.054Z,40.03
2022-11-27T20:59:30.304Z,37.70
2022-11-27T21:01:56.549Z,42.60
2022-11-27T21:04:24.224Z,51.40
2022-11-27T21:06:50.774Z,40.33
2022-11-27T21:09:17.190Z,39.80
2022-11-27T21:11:43.791Z,48.28
2022-11-27T21:14:10.985Z,40.25
2022-11-27T21:16:38.807Z,41.47
2022-11-27T21:19:06.664Z,47.83
2022-11-27T21:21:33.640Z,41.67
2022-11-27T21:26:26.534Z,38.80
2022-11-27T21:28:52.911Z,39.65
2022-11-27T21:31:20.672Z,39.25
2022-11-27T21:33:47.825Z,39.88
2022-11-27T21:36:14.472Z,43.30
2022-11-27T21:38:40.731Z,38.50
2022-11-27T21:41:06.983Z,40.95
2022-11-27T21:43:33.422Z,48.90
2022-11-27T21:46:13.345Z,37.58
2022-11-27T21:48:40.302Z,40.42
2022-11-27T21:53:33.273Z,38.97
2022-11-27T21:56:03.155Z,45.63
2022-11-27T21:58:33.986Z,30.30
2022-11-27T22:01:00.795Z,33.85
2022-11-27T22:05:59.669Z,33.83
2022-11-27T22:08:25.940Z,38.47
2022-11-27T22:10:52.183Z,38.92
2022-11-27T22:13:18.435Z,37.33
2022-11-27T22:15:44.717Z,36.38
2022-11-27T22:18:11.875Z,34.42
2022-11-27T22:20:38.700Z,43.40
2022-11-27T22:23:04.955Z,38.10
2022-11-27T22:25:31.223Z,43.47
2022-11-27T22:27:57.446Z,45.35
2022-11-27T22:30:24.432Z,38.58
2022-11-27T22:32:54.575Z,36.08
2022-11-27T22:35:20.853Z,42.20
2022-11-27T22:37:47.140Z,39.53
2022-11-27T22:40:13.583Z,40.08
2022-11-27T22:42:39.924Z,36.25
2022-11-27T22:45:06.586Z,40.40
2022-11-27T22:47:33.000Z,43.75
2022-11-27T22:49:59.218Z,45.13
2022-11-27T22:52:25.428Z,40.17
2022-11-27T22:54:51.662Z,47.30
2022-11-27T22:57:18.728Z,40.65
2022-11-27T22:59:44.954Z,40.47
2022-11-27T23:02:11.483Z,39.08
2022-11-27T23:04:37.976Z,36.38
2022-11-27T23:07:05.332Z,37.10
2022-11-27T23:09:31.629Z,34.33
2022-11-27T23:11:58.583Z,36.20
2022-11-27T23:16:51.098Z,33.45
2022-11-27T23:19:17.402Z,41.30
2022-11-27T23:21:43.703Z,32.50
2022-11-27T23:24:11.651Z,33.90
2022-11-27T23:26:38.176Z,31.30
2022-11-27T23:29:04.611Z,39.33
2022-11-27T23:31:35.722Z,41.13
2022-11-27T23:34:03.690Z,42.67
2022-11-27T23:36:31.032Z,35.17
2022-11-27T23:38:59.552Z,31.73
2022-11-27T23:41:25.811Z,32.78
2022-11-27T23:43:53.007Z,33.05
2022-11-27T23:46:20.844Z,33.35
2022-11-27T23:48:47.162Z,33.92
2022-11-27T23:51:14.921Z,38.42
2022-11-27T23:53:41.540Z,32.00
2022-11-27T23:56:09.501Z,35.72
2022-11-27T23:58:35.994Z,32.03
